Time;durP1;ratioP1;P1;durP2;ratioP2;P2;SDS_P1;SDS_P2;PMS_P1;PMS_P2;Temp;Humidity;BMP_temperature;BMP_pressure;BME280_temperature;BME280_humidity;BME280_pressure;Samples;Min_cycle;Max_cycle;Signal;HPM_P1;HPM_P2
2022/11/20 00:00:46;;;;;;;18.13;12.30;;;-1.10;99.90;;;;;;5010850;28;20049;-80
2022/11/20 00:03:12;;;;;;;21.77;13.20;;;-1.10;99.90;;;;;;4980089;28;20046;-78
2022/11/20 00:05:38;;;;;;;20.07;12.77;;;-1.00;99.90;;;;;;5010800;28;20050;-78
2022/11/20 00:08:04;;;;;;;21.80;12.97;;;-1.00;99.90;;;;;;5009866;28;20038;-78
2022/11/20 00:10:29;;;;;;;22.07;14.40;;;-1.00;99.90;;;;;;4977521;28;20121;-78
2022/11/20 00:12:55;;;;;;;27.77;15.50;;;-1.00;99.90;;;;;;4960795;28;21228;-78
2022/11/20 00:15:20;;;;;;;19.33;12.93;;;-1.00;99.90;;;;;;4977499;28;20436;-78
2022/11/20 00:17:46;;;;;;;20.43;13.27;;;-1.00;99.90;;;;;;4993521;28;20116;-78
2022/11/20 00:20:12;;;;;;;20.83;13.67;;;-1.00;99.90;;;;;;4978016;28;20094;-78
2022/11/20 00:22:38;;;;;;;22.10;13.63;;;-0.90;99.90;;;;;;5010002;28;20045;-78
2022/11/20 00:25:04;;;;;;;21.27;14.07;;;-1.00;99.90;;;;;;4977638;28;20046;-77
2022/11/20 00:27:29;;;;;;;21.37;13.73;;;-0.90;99.90;;;;;;4973737;28;20505;-77
2022/11/20 00:29:55;;;;;;;23.37;14.13;;;-0.90;99.90;;;;;;4965396;28;20060;-76
2022/11/20 00:32:20;;;;;;;22.67;14.00;;;-0.90;99.90;;;;;;4976733;28;20034;-77
2022/11/20 00:34:46;;;;;;;23.37;14.57;;;-0.90;99.90;;;;;;4976642;28;20117;-77
2022/11/20 00:37:11;;;;;;;22.60;14.13;;;-0.90;99.90;;;;;;4977496;28;20038;-76
2022/11/20 00:39:37;;;;;;;21.20;14.13;;;-0.90;99.90;;;;;;4989709;28;20035;-76
2022/11/20 00:42:03;;;;;;;20.67;13.57;;;-0.90;99.90;;;;;;4941758;28;20056;-77
2022/11/20 00:44:28;;;;;;;20.77;13.80;;;-0.90;99.90;;;;;;4977177;28;20110;-76
2022/11/20 00:46:54;;;;;;;22.77;14.80;;;-0.90;99.90;;;;;;4960952;28;20134;-76
2022/11/20 00:49:19;;;;;;;22.10;13.40;;;-0.90;99.90;;;;;;5009245;28;20458;-76
2022/11/20 00:51:45;;;;;;;22.77;14.67;;;-0.80;99.90;;;;;;5009445;28;20089;-76
2022/11/20 00:54:10;;;;;;;22.80;14.83;;;-0.80;99.90;;;;;;4994239;28;20041;-75
2022/11/20 00:56:36;;;;;;;23.33;14.37;;;-0.80;99.90;;;;;;5008935;28;20081;-75
2022/11/20 00:59:01;;;;;;;22.93;14.43;;;-0.80;99.90;;;;;;4976595;28;20035;-76
2022/11/20 01:01:29;;;;;;;21.67;14.57;;;-0.80;99.90;;;;;;4993693;28;20700;-76
2022/11/20 01:03:56;;;;;;;23.27;14.93;;;-0.80;99.90;;;;;;4982234;28;20404;-75
2022/11/20 01:06:31;;;;;;;24.70;15.33;;;-0.80;99.90;;;;;;4994019;28;20042;-76
2022/11/20 01:08:59;;;;;;;25.00;15.07;;;-0.80;99.90;;;;;;4975962;28;20046;-76
2022/11/20 01:11:28;;;;;;;23.07;15.90;;;-0.80;99.90;;;;;;4978837;28;20042;-76
2022/11/20 01:13:55;;;;;;;24.63;15.37;;;-0.70;99.90;;;;;;4979514;28;20034;-76
2022/11/20 01:16:26;;;;;;;25.20;16.37;;;-0.80;99.90;;;;;;4979823;28;20088;-76
2022/11/20 01:18:54;;;;;;;23.67;14.70;;;-0.70;99.90;;;;;;4975856;28;20042;-76
2022/11/20 01:21:22;;;;;;;24.53;15.33;;;-0.70;99.90;;;;;;4977787;28;20034;-76
2022/11/20 01:23:48;;;;;;;23.77;15.17;;;-0.70;99.90;;;;;;4977990;28;20146;-75
2022/11/20 01:26:24;;;;;;;24.00;15.33;;;-0.70;99.90;;;;;;4993330;28;20046;-76
2022/11/20 01:28:49;;;;;;;23.53;15.03;;;-0.70;99.90;;;;;;4956639;28;20030;-75
2022/11/20 01:31:27;;;;;;;23.27;14.97;;;-0.70;99.90;;;;;;4975233;28;20039;-76
2022/11/20 01:33:55;;;;;;;23.03;14.80;;;-0.70;99.90;;;;;;4978975;28;20042;-75
2022/11/20 01:36:22;;;;;;;24.83;14.40;;;-0.70;99.90;;;;;;5006643;28;20034;-75
2022/11/20 01:38:51;;;;;;;23.30;14.70;;;-0.60;99.90;;;;;;4981089;28;20054;-75
2022/11/20 01:44:02;;;;;;;21.30;13.57;;;-0.70;99.90;;;;;;4972724;28;20396;-76
2022/11/20 01:46:28;;;;;;;19.97;13.63;;;-0.70;99.90;;;;;;4984822;28;20049;-76
2022/11/20 01:49:15;;;;;;;22.17;13.67;;;-0.60;99.90;;;;;;4978768;28;20117;-75
2022/11/20 01:51:47;;;;;;;22.53;13.87;;;-0.60;99.90;;;;;;5000921;28;20042;-76
2022/11/20 01:54:19;;;;;;;22.33;14.53;;;-0.70;99.90;;;;;;4974164;28;20042;-75
2022/11/20 01:56:47;;;;;;;22.17;13.33;;;-0.70;99.90;;;;;;4977069;28;20038;-76
2022/11/20 01:59:17;;;;;;;20.60;13.30;;;-0.70;99.90;;;;;;4976651;28;20042;-76
2022/11/20 02:01:43;;;;;;;23.30;14.07;;;-0.70;99.90;;;;;;4998277;28;20054;-76
2022/11/20 02:04:09;;;;;;;22.67;14.17;;;-0.60;99.90;;;;;;4964869;28;20038;-76
2022/11/20 02:06:43;;;;;;;22.80;13.30;;;-0.60;99.90;;;;;;4974558;28;20045;-76
2022/11/20 02:09:09;;;;;;;20.63;13.13;;;-0.60;99.90;;;;;;4990221;28;20043;-76
2022/11/20 02:11:35;;;;;;;22.00;13.17;;;-0.60;99.90;;;;;;4982357;28;20050;-75
2022/11/20 02:14:00;;;;;;;22.73;13.57;;;-0.60;99.90;;;;;;4958898;28;20049;-76
2022/11/20 02:16:30;;;;;;;20.10;12.93;;;-0.60;99.90;;;;;;4975753;28;20117;-77
2022/11/20 02:18:59;;;;;;;21.30;13.13;;;-0.60;99.90;;;;;;4975176;28;20041;-77
2022/11/20 02:21:32;;;;;;;21.10;13.23;;;-0.60;99.90;;;;;;4973363;28;20042;-77
2022/11/20 02:23:59;;;;;;;19.88;12.75;;;-0.60;99.90;;;;;;4973638;28;20721;-77
2022/11/20 02:26:27;;;;;;;21.73;13.27;;;-0.60;99.90;;;;;;4999518;28;20045;-77
2022/11/20 02:28:54;;;;;;;19.00;11.33;;;-0.60;99.90;;;;;;4978432;28;20396;-76
2022/11/20 02:31:19;;;;;;;19.63;12.30;;;-0.60;99.90;;;;;;4974325;28;20528;-77
2022/11/20 02:33:45;;;;;;;19.30;11.87;;;-0.60;99.90;;;;;;5007155;28;20046;-76
2022/11/20 02:36:14;;;;;;;19.53;12.17;;;-0.50;99.90;;;;;;4976845;28;20025;-77
2022/11/20 02:38:40;;;;;;;21.70;13.07;;;-0.50;99.90;;;;;;4977174;28;20408;-76
2022/11/20 02:41:06;;;;;;;18.93;11.73;;;-0.60;99.90;;;;;;4976754;28;20034;-77
2022/11/20 02:43:31;;;;;;;19.53;12.63;;;-0.50;99.90;;;;;;4973818;28;20057;-76
2022/11/20 02:45:57;;;;;;;20.90;12.40;;;-0.50;99.90;;;;;;4974329;28;20042;-77
2022/11/20 02:48:23;;;;;;;19.70;12.27;;;-0.50;99.90;;;;;;4975609;28;20411;-76
2022/11/20 02:50:48;;;;;;;18.37;11.40;;;-0.50;99.90;;;;;;4956662;28;20046;-76
2022/11/20 02:53:14;;;;;;;19.03;12.30;;;-0.50;99.90;;;;;;4976444;28;20034;-76
2022/11/20 02:55:39;;;;;;;20.30;11.97;;;-0.50;99.90;;;;;;5004604;28;20121;-76
2022/11/20 02:58:05;;;;;;;18.43;11.90;;;-0.50;99.90;;;;;;4977446;28;20038;-76
2022/11/20 03:00:31;;;;;;;19.77;12.13;;;-0.50;99.90;;;;;;4974565;28;20492;-76
2022/11/20 03:02:57;;;;;;;17.83;11.57;;;-0.50;99.90;;;;;;4974166;28;20092;-76
2022/11/20 03:05:22;;;;;;;20.60;11.67;;;-0.50;99.90;;;;;;4980114;28;20046;-76
2022/11/20 03:07:48;;;;;;;18.70;11.80;;;-0.50;99.90;;;;;;4973226;28;20061;-76
2022/11/20 03:10:14;;;;;;;19.47;12.20;;;-0.50;99.90;;;;;;4978440;28;20076;-76
2022/11/20 03:12:39;;;;;;;17.87;11.47;;;-0.40;99.90;;;;;;4978536;28;20034;-76
2022/11/20 03:15:05;;;;;;;19.60;11.90;;;-0.40;99.90;;;;;;4975343;28;20120;-75
2022/11/20 03:17:32;;;;;;;19.47;11.73;;;-0.40;99.90;;;;;;4959099;28;20754;-76
2022/11/20 03:19:57;;;;;;;17.63;11.47;;;-0.40;99.90;;;;;;4985844;28;20052;-76
2022/11/20 03:22:23;;;;;;;19.53;11.50;;;-0.40;99.90;;;;;;4987966;28;20068;-76
2022/11/20 03:24:48;;;;;;;20.00;11.63;;;-0.40;99.90;;;;;;4977738;28;20060;-77
2022/11/20 03:27:13;;;;;;;18.37;11.90;;;-0.40;99.90;;;;;;5012525;28;20046;-77
2022/11/20 03:29:39;;;;;;;19.70;11.80;;;-0.40;99.90;;;;;;4985722;28;20056;-77
2022/11/20 03:32:05;;;;;;;17.17;11.10;;;-0.40;99.90;;;;;;4986689;28;20046;-76
2022/11/20 03:34:30;;;;;;;17.57;11.73;;;-0.40;99.90;;;;;;4985864;28;20141;-77
2022/11/20 03:36:56;;;;;;;20.57;12.17;;;-0.40;99.90;;;;;;4979874;28;20038;-76
2022/11/20 03:39:22;;;;;;;18.13;11.30;;;-0.40;99.90;;;;;;4995447;28;20065;-77
2022/11/20 03:41:48;;;;;;;19.87;12.23;;;-0.40;99.90;;;;;;4980668;28;20050;-76
2022/11/20 03:44:13;;;;;;;17.00;11.30;;;-0.30;99.90;;;;;;5012974;28;20107;-76
2022/11/20 03:46:39;;;;;;;17.63;11.60;;;-0.30;99.90;;;;;;4980709;28;20480;-76
2022/11/20 03:49:05;;;;;;;16.13;10.70;;;-0.30;99.90;;;;;;4964087;28;20515;-76
2022/11/20 03:51:33;;;;;;;17.97;10.90;;;-0.30;99.90;;;;;;4981685;28;20396;-76
2022/11/20 03:54:01;;;;;;;17.73;10.93;;;-0.40;99.90;;;;;;4973701;28;20034;-76
2022/11/20 03:56:29;;;;;;;18.47;11.40;;;-0.40;99.90;;;;;;4979922;28;20496;-76
2022/11/20 03:58:55;;;;;;;17.73;10.90;;;-0.40;99.90;;;;;;4973071;28;20097;-75
2022/11/20 04:01:23;;;;;;;15.23;10.13;;;-0.40;99.90;;;;;;4979236;28;20038;-76
2022/11/20 04:03:51;;;;;;;17.83;10.23;;;-0.30;99.90;;;;;;4980135;28;20050;-75
2022/11/20 04:06:25;;;;;;;16.47;10.30;;;-0.30;99.90;;;;;;4979373;28;20030;-75
2022/11/20 04:08:51;;;;;;;16.50;10.37;;;-0.30;99.90;;;;;;4974756;28;20113;-74
2022/11/20 04:11:25;;;;;;;16.93;9.90;;;-0.30;99.90;;;;;;4989048;28;20104;-75
2022/11/20 04:13:54;;;;;;;13.40;9.13;;;-0.30;99.90;;;;;;4966237;28;20125;-74
2022/11/20 04:16:21;;;;;;;14.00;9.33;;;-0.30;99.90;;;;;;4979347;28;20062;-75
2022/11/20 04:18:46;;;;;;;15.73;9.40;;;-0.30;99.90;;;;;;4979301;28;21693;-73
2022/11/20 04:21:12;;;;;;;15.40;9.57;;;-0.30;99.90;;;;;;4986396;28;20158;-75
2022/11/20 04:23:37;;;;;;;14.33;9.07;;;-0.30;99.90;;;;;;4981438;28;20050;-75
2022/11/20 04:26:09;;;;;;;15.87;9.60;;;-0.30;99.90;;;;;;4987376;28;20045;-74
2022/11/20 04:28:35;;;;;;;16.03;9.17;;;-0.30;99.90;;;;;;4965295;28;20046;-74
2022/11/20 04:31:11;;;;;;;14.33;9.63;;;-0.30;99.90;;;;;;4979705;28;20033;-75
2022/11/20 04:33:37;;;;;;;13.67;8.93;;;-0.30;99.90;;;;;;4969151;28;20096;-75
2022/11/20 04:36:11;;;;;;;15.60;9.53;;;-0.30;99.90;;;;;;4975954;28;20073;-75
2022/11/20 04:38:37;;;;;;;14.43;9.03;;;-0.20;99.90;;;;;;5005253;28;20129;-75
2022/11/20 04:41:05;;;;;;;12.03;8.30;;;-0.20;99.90;;;;;;4977305;28;20449;-75
2022/11/20 04:43:32;;;;;;;13.60;8.50;;;-0.20;99.90;;;;;;4979795;28;20168;-74
2022/11/20 04:45:58;;;;;;;13.10;8.83;;;-0.20;99.90;;;;;;4977070;28;20053;-72
2022/11/20 04:48:25;;;;;;;14.07;9.27;;;-0.20;99.90;;;;;;4979027;28;20050;-75
2022/11/20 04:50:51;;;;;;;13.73;8.97;;;-0.20;99.90;;;;;;4979226;28;20046;-75
2022/11/20 04:53:17;;;;;;;14.17;9.40;;;-0.20;99.90;;;;;;4977463;28;20034;-74
2022/11/20 04:55:43;;;;;;;13.87;9.03;;;-0.20;99.90;;;;;;4966304;28;20500;-75
2022/11/20 04:58:09;;;;;;;13.90;8.57;;;-0.20;99.90;;;;;;4976449;28;20092;-74
2022/11/20 05:00:35;;;;;;;13.43;9.03;;;-0.20;99.90;;;;;;4976733;28;20125;-75
2022/11/20 05:03:00;;;;;;;12.10;7.97;;;-0.20;99.90;;;;;;4976819;28;20041;-74
2022/11/20 05:05:26;;;;;;;13.80;9.00;;;-0.20;99.90;;;;;;4992873;28;20042;-74
2022/11/20 05:07:51;;;;;;;13.33;8.70;;;-0.20;99.90;;;;;;4976588;28;20409;-74
2022/11/20 05:10:17;;;;;;;13.27;9.40;;;-0.20;99.90;;;;;;4979152;28;20078;-74
2022/11/20 05:12:42;;;;;;;14.23;9.30;;;-0.20;99.90;;;;;;4975808;28;20122;-74
2022/11/20 05:15:08;;;;;;;12.73;7.90;;;-0.20;99.90;;;;;;4975596;28;20173;-74
2022/11/20 05:17:34;;;;;;;13.90;9.20;;;-0.20;99.90;;;;;;4977227;28;20034;-74
2022/11/20 05:19:59;;;;;;;14.30;9.47;;;-0.20;99.90;;;;;;4995824;28;20026;-74
2022/11/20 05:22:25;;;;;;;15.17;9.63;;;-0.20;99.90;;;;;;4982556;28;20130;-74
2022/11/20 05:24:50;;;;;;;15.90;9.53;;;-0.20;99.90;;;;;;4984524;28;20121;-74
2022/11/20 05:27:16;;;;;;;15.20;9.27;;;-0.20;99.90;;;;;;4985809;28;20045;-75
2022/11/20 05:29:41;;;;;;;13.90;9.53;;;-0.20;99.90;;;;;;4981882;28;20049;-75
2022/11/20 05:32:09;;;;;;;16.13;9.47;;;-0.20;99.90;;;;;;4982103;28;20048;-75
2022/11/20 05:34:35;;;;;;;16.13;9.50;;;-0.20;99.90;;;;;;4975293;28;20042;-74
2022/11/20 05:37:00;;;;;;;15.27;9.90;;;-0.20;99.90;;;;;;4990313;28;20089;-76
2022/11/20 05:39:26;;;;;;;15.20;9.57;;;-0.20;99.90;;;;;;5007161;28;20030;-76
2022/11/20 05:42:29;;;;;;;15.77;9.50;;;-0.20;99.90;;;;;;4979926;28;20046;-75
2022/11/20 05:44:37;;;;;;;15.77;9.60;;;-0.20;99.90;;;;;;4978420;28;20586;-75
2022/11/20 05:47:03;;;;;;;15.43;9.80;;;-0.20;99.90;;;;;;4975538;28;20050;-75
2022/11/20 05:49:28;;;;;;;19.67;11.90;;;-0.20;99.90;;;;;;4974867;28;20046;-75
2022/11/20 05:51:54;;;;;;;18.37;11.87;;;-0.10;99.90;;;;;;4963851;28;20085;-75
2022/11/20 05:54:19;;;;;;;18.80;12.20;;;-0.10;99.90;;;;;;4973719;28;20454;-73
2022/11/20 05:56:45;;;;;;;22.27;14.00;;;-0.20;99.90;;;;;;5006502;28;20046;-75
2022/11/20 05:59:10;;;;;;;23.93;13.60;;;-0.10;99.90;;;;;;4974491;28;20038;-74
2022/11/20 06:01:36;;;;;;;20.47;12.83;;;-0.10;99.90;;;;;;4976522;28;20400;-74
2022/11/20 06:04:01;;;;;;;20.97;12.93;;;-0.10;99.90;;;;;;4982308;28;20042;-74
2022/11/20 06:06:27;;;;;;;19.37;12.60;;;-0.10;99.90;;;;;;4975903;28;20113;-74
2022/11/20 06:08:54;;;;;;;20.67;13.03;;;-0.10;99.90;;;;;;4973213;28;20445;-74
2022/11/20 06:11:20;;;;;;;17.27;11.30;;;-0.10;99.90;;;;;;5006863;28;20046;-74
2022/11/20 06:13:46;;;;;;;15.30;10.23;;;-0.10;99.90;;;;;;4978061;28;20038;-75
2022/11/20 06:16:14;;;;;;;14.77;9.77;;;-0.10;99.90;;;;;;4973697;28;20030;-75
2022/11/20 06:18:40;;;;;;;16.07;9.90;;;-0.10;99.90;;;;;;4974331;28;20147;-75
2022/11/20 06:21:15;;;;;;;13.87;9.50;;;-0.10;99.90;;;;;;4964474;28;20030;-75
2022/11/20 06:23:41;;;;;;;14.97;9.77;;;-0.10;99.90;;;;;;4976703;28;20100;-74
2022/11/20 06:26:25;;;;;;;14.97;9.90;;;-0.10;99.90;;;;;;5005490;28;20042;-75
2022/11/20 06:28:51;;;;;;;15.93;9.82;;;-0.10;99.90;;;;;;4968499;28;20034;-76
2022/11/20 06:31:20;;;;;;;17.53;10.90;;;-0.10;99.90;;;;;;5005269;28;20546;-77
2022/11/20 06:33:45;;;;;;;14.77;9.60;;;-0.10;99.90;;;;;;4982614;28;20042;-77
2022/11/20 06:36:13;;;;;;;15.27;9.53;;;-0.10;99.90;;;;;;4979917;28;20034;-77
2022/11/20 06:38:39;;;;;;;15.60;9.70;;;-0.10;99.90;;;;;;4987617;28;20041;-76
2022/11/20 06:41:06;;;;;;;13.17;8.83;;;-0.10;99.90;;;;;;4985126;28;20046;-76
2022/11/20 06:43:32;;;;;;;14.47;9.13;;;-0.10;99.90;;;;;;4979932;28;20373;-77
2022/11/20 06:45:58;;;;;;;14.10;9.27;;;-0.10;99.90;;;;;;4983543;28;20102;-77
2022/11/20 06:48:26;;;;;;;14.97;9.40;;;-0.10;99.90;;;;;;5004863;28;20038;-77
2022/11/20 06:50:52;;;;;;;13.40;8.80;;;-0.10;99.90;;;;;;5005347;28;20042;-77
2022/11/20 06:53:17;;;;;;;14.17;8.80;;;-0.10;99.90;;;;;;4976983;28;20034;-77
2022/11/20 06:55:45;;;;;;;13.57;9.00;;;0.00;99.90;;;;;;5005396;28;20528;-78
2022/11/20 06:58:11;;;;;;;12.50;8.50;;;0.00;99.90;;;;;;4974707;28;20038;-78
2022/11/20 07:00:36;;;;;;;13.43;8.70;;;0.00;99.90;;;;;;4979639;28;20038;-78
2022/11/20 07:03:06;;;;;;;16.33;8.77;;;0.00;99.90;;;;;;4976597;28;20054;-78
2022/11/20 07:05:32;;;;;;;12.73;8.47;;;0.00;99.90;;;;;;5003515;28;20435;-78
2022/11/20 07:07:58;;;;;;;13.60;8.63;;;0.00;99.90;;;;;;4979576;28;20050;-78
2022/11/20 07:10:25;;;;;;;13.13;8.67;;;0.00;99.90;;;;;;4973539;28;20136;-78
2022/11/20 07:12:54;;;;;;;14.67;9.03;;;0.00;99.90;;;;;;4961511;28;20089;-78
2022/11/20 07:15:22;;;;;;;12.93;8.57;;;0.10;99.90;;;;;;4973986;28;20088;-79
2022/11/20 07:17:48;;;;;;;13.00;8.70;;;0.00;99.90;;;;;;4982602;28;20778;-79
2022/11/20 07:20:14;;;;;;;13.93;9.07;;;0.10;99.90;;;;;;4974205;28;20038;-80
2022/11/20 07:22:39;;;;;;;14.70;9.50;;;0.10;99.90;;;;;;4975235;28;20081;-78
2022/11/20 07:25:06;;;;;;;14.83;9.23;;;0.10;99.90;;;;;;4983292;28;20077;-78
2022/11/20 07:27:32;;;;;;;14.60;9.47;;;0.10;99.90;;;;;;4975474;28;20053;-79
2022/11/20 07:29:57;;;;;;;14.50;9.37;;;0.10;99.90;;;;;;4973695;28;20520;-78
2022/11/20 07:32:26;;;;;;;17.07;10.20;;;0.10;99.90;;;;;;4973908;28;20444;-78
2022/11/20 07:34:52;;;;;;;18.50;11.07;;;0.10;99.90;;;;;;5003659;28;20042;-78
2022/11/20 07:37:17;;;;;;;16.57;10.90;;;0.20;99.90;;;;;;4981134;28;20042;-77
2022/11/20 07:39:43;;;;;;;15.67;10.27;;;0.20;99.90;;;;;;4975089;28;20467;-76
2022/11/20 07:42:09;;;;;;;16.63;9.23;;;0.20;99.90;;;;;;4972451;28;20045;-77
2022/11/20 07:44:35;;;;;;;17.77;9.83;;;0.20;99.90;;;;;;4981197;28;20117;-77
2022/11/20 07:47:00;;;;;;;15.57;9.03;;;0.20;99.90;;;;;;4978206;28;20412;-77
2022/11/20 07:49:26;;;;;;;17.67;10.07;;;0.20;99.90;;;;;;4973226;28;20045;-77
2022/11/20 07:51:55;;;;;;;15.47;10.60;;;0.20;99.90;;;;;;4976462;28;20046;-76
2022/11/20 07:54:21;;;;;;;13.67;9.83;;;0.20;99.90;;;;;;4974108;28;20041;-77
2022/11/20 07:56:47;;;;;;;16.53;10.43;;;0.20;99.90;;;;;;4968506;28;20117;-76
2022/11/20 07:59:13;;;;;;;15.23;9.50;;;0.20;99.90;;;;;;4981935;28;20519;-76
2022/11/20 08:01:39;;;;;;;14.73;9.37;;;0.30;99.90;;;;;;4971421;28;20046;-76
2022/11/20 08:04:05;;;;;;;14.23;9.70;;;0.30;99.90;;;;;;4973098;28;20034;-76
2022/11/20 08:06:31;;;;;;;14.07;9.13;;;0.30;99.90;;;;;;4976260;28;20057;-76
2022/11/20 08:08:57;;;;;;;14.33;9.07;;;0.30;99.90;;;;;;4981770;28;20034;-76
2022/11/20 08:14:12;;;;;;;15.18;9.18;;;0.30;99.90;;;;;;4967783;28;20047;-77
2022/11/20 08:16:43;;;;;;;14.20;8.97;;;0.30;99.90;;;;;;4979403;28;20045;-79
2022/11/20 08:19:09;;;;;;;16.50;9.80;;;0.40;99.90;;;;;;4954862;28;20074;-78
2022/11/20 08:21:35;;;;;;;13.87;9.17;;;0.30;99.90;;;;;;4975945;28;20042;-79
2022/11/20 08:24:00;;;;;;;14.50;9.57;;;0.30;99.90;;;;;;4993849;28;20045;-78
2022/11/20 08:26:26;;;;;;;13.27;8.67;;;0.30;99.90;;;;;;4979677;28;20173;-78
2022/11/20 08:28:56;;;;;;;13.73;9.13;;;0.30;99.90;;;;;;4978289;28;20050;-79
2022/11/20 08:31:23;;;;;;;15.60;9.93;;;0.30;99.90;;;;;;4979739;28;20117;-79
2022/11/20 08:33:49;;;;;;;14.80;8.67;;;0.30;99.90;;;;;;4977568;28;20038;-79
2022/11/20 08:36:15;;;;;;;12.97;8.63;;;0.30;99.90;;;;;;4978000;28;20049;-79
2022/11/20 08:38:41;;;;;;;13.97;9.27;;;0.30;99.90;;;;;;5010363;28;20457;-79
2022/11/20 08:43:51;;;;;;;;;;;0.30;99.90;;;;;;5007095;28;20062;-80
2022/11/20 08:46:17;;;;;;;12.33;8.13;;;0.30;99.90;;;;;;4973069;28;19917;-79
2022/11/20 08:48:43;;;;;;;13.50;8.43;;;0.30;99.90;;;;;;4972610;28;20070;-78
2022/11/20 08:51:10;;;;;;;15.93;9.27;;;0.30;99.90;;;;;;4975060;28;20050;-77
2022/11/20 08:53:36;;;;;;;14.50;8.80;;;0.40;99.90;;;;;;4975942;28;20117;-77
2022/11/20 08:56:02;;;;;;;13.73;8.87;;;0.40;99.90;;;;;;4975596;28;20043;-77
2022/11/20 08:58:28;;;;;;;12.80;8.83;;;0.40;99.90;;;;;;4995644;28;20034;-77
2022/11/20 09:00:53;;;;;;;13.10;9.03;;;0.40;99.90;;;;;;4975798;28;20077;-77
2022/11/20 09:03:19;;;;;;;14.53;9.30;;;0.40;99.90;;;;;;4974471;28;20043;-77
2022/11/20 09:05:45;;;;;;;17.67;10.27;;;0.40;99.90;;;;;;4976478;28;20459;-77
2022/11/20 09:08:10;;;;;;;13.83;8.83;;;0.40;99.90;;;;;;4960055;28;20038;-77
2022/11/20 09:10:36;;;;;;;15.20;9.80;;;0.40;99.90;;;;;;4973336;28;20129;-76
2022/11/20 09:13:02;;;;;;;17.40;10.47;;;0.40;99.90;;;;;;4956141;28;20041;-76
2022/11/20 09:15:27;;;;;;;14.73;9.43;;;0.40;99.90;;;;;;4982925;28;20513;-76
2022/11/20 09:17:58;;;;;;;14.13;8.93;;;0.40;99.90;;;;;;4967592;28;20030;-76
2022/11/20 09:20:26;;;;;;;13.10;9.00;;;0.50;99.90;;;;;;4987727;28;20062;-76
2022/11/20 09:22:51;;;;;;;13.33;8.80;;;0.50;99.90;;;;;;4966431;28;20095;-76
2022/11/20 09:25:17;;;;;;;13.07;8.37;;;0.50;99.90;;;;;;4971194;28;20042;-76
2022/11/20 09:27:45;;;;;;;12.27;8.30;;;0.50;99.90;;;;;;4975633;28;20129;-76
2022/11/20 09:30:12;;;;;;;14.03;8.63;;;0.60;99.90;;;;;;4977236;28;20112;-76
2022/11/20 09:32:39;;;;;;;13.70;9.00;;;0.60;99.90;;;;;;4979269;28;20050;-76
2022/11/20 09:35:04;;;;;;;14.33;9.03;;;0.60;99.90;;;;;;4983110;28;20040;-75
2022/11/20 09:37:30;;;;;;;13.03;8.73;;;0.60;99.90;;;;;;4971365;28;20046;-76
2022/11/20 09:39:55;;;;;;;15.37;8.90;;;0.70;99.90;;;;;;4973821;28;20038;-76
2022/11/20 09:42:32;;;;;;;14.23;8.50;;;0.70;99.90;;;;;;4989796;28;20046;-75
2022/11/20 09:45:10;;;;;;;13.33;8.37;;;0.80;99.90;;;;;;4982057;28;20046;-76
2022/11/20 09:47:47;;;;;;;12.40;8.33;;;0.80;99.90;;;;;;4963449;28;20034;-76
2022/11/20 09:50:23;;;;;;;13.57;8.30;;;0.90;99.90;;;;;;4956598;28;20046;-74
2022/11/20 09:53:17;;;;;;;12.43;7.70;;;1.00;99.90;;;;;;4957059;28;20602;-76
2022/11/20 09:55:44;;;;;;;10.52;7.38;;;1.00;99.90;;;;;;4975867;28;20451;-75
2022/11/20 09:58:24;;;;;;;13.10;8.10;;;1.00;99.90;;;;;;5006013;28;20038;-75
2022/11/20 10:00:52;;;;;;;12.13;8.00;;;1.20;99.90;;;;;;4994274;28;20173;-75
2022/11/20 10:03:45;;;;;;;12.03;8.40;;;1.10;99.90;;;;;;4973730;28;20050;-75
2022/11/20 10:06:15;;;;;;;12.43;7.73;;;1.10;99.90;;;;;;5005758;28;20385;-74
2022/11/20 10:08:59;;;;;;;12.33;8.13;;;1.10;99.90;;;;;;4974417;28;20519;-74
2022/11/20 10:11:31;;;;;;;;;;;1.10;99.90;;;;;;4976001;28;20500;-74
2022/11/20 10:14:08;;;;;;;10.40;6.87;;;1.20;99.90;;;;;;4975217;28;19929;-74
2022/11/20 10:16:45;;;;;;;10.90;7.80;;;1.20;99.90;;;;;;5007624;28;20030;-74
2022/11/20 10:19:47;;;;;;;14.27;8.13;;;1.20;99.90;;;;;;5007590;28;20105;-74
2022/11/20 10:22:21;;;;;;;12.73;8.20;;;1.30;99.90;;;;;;4960313;28;20085;-74
2022/11/20 10:25:03;;;;;;;10.50;7.23;;;1.30;99.90;;;;;;4995005;28;20070;-74
2022/11/20 10:28:01;;;;;;;11.83;8.17;;;1.40;99.90;;;;;;4973896;28;20050;-74
2022/11/20 10:30:27;;;;;;;12.60;7.57;;;1.50;99.90;;;;;;4974904;28;20039;-74
2022/11/20 10:32:58;;;;;;;12.40;7.60;;;1.50;99.90;;;;;;4991497;28;20083;-74
2022/11/20 10:35:32;;;;;;;11.63;7.97;;;1.50;99.90;;;;;;4974755;28;20054;-74
2022/11/20 10:38:00;;;;;;;10.63;7.57;;;1.60;99.90;;;;;;4970337;28;20047;-74
2022/11/20 10:40:31;;;;;;;11.73;7.83;;;1.60;99.90;;;;;;4979174;28;20072;-75
2022/11/20 10:43:07;;;;;;;11.53;7.70;;;1.60;99.90;;;;;;4974652;28;20043;-74
2022/11/20 10:45:45;;;;;;;12.23;7.87;;;1.60;99.90;;;;;;4957966;28;20403;-74
2022/11/20 10:48:19;;;;;;;10.70;7.13;;;1.70;99.90;;;;;;4971623;28;20078;-74
2022/11/20 10:50:57;;;;;;;10.70;7.20;;;1.60;99.90;;;;;;4975657;28;20050;-74
2022/11/20 10:53:46;;;;;;;12.37;8.03;;;1.60;99.90;;;;;;4972619;28;20069;-74
2022/11/20 10:56:20;;;;;;;11.83;7.37;;;1.60;99.90;;;;;;4970528;28;20137;-74
2022/11/20 10:59:07;;;;;;;10.80;6.80;;;1.60;99.90;;;;;;4972183;28;20065;-75
2022/11/20 11:01:42;;;;;;;10.97;7.53;;;1.60;99.90;;;;;;4968765;28;20046;-74
2022/11/20 11:04:30;;;;;;;12.03;8.30;;;1.60;99.90;;;;;;4987089;28;20042;-75
2022/11/20 11:07:05;;;;;;;12.13;8.03;;;1.50;99.90;;;;;;4972187;28;20416;-74
2022/11/20 11:09:39;;;;;;;12.03;7.97;;;1.50;99.90;;;;;;4987091;28;20046;-74
2022/11/20 11:12:11;;;;;;;11.27;7.53;;;1.50;99.90;;;;;;4970937;28;20042;-74
2022/11/20 11:14:45;;;;;;;13.20;8.17;;;1.50;99.90;;;;;;4974334;28;20104;-74
2022/11/20 11:17:29;;;;;;;13.23;8.00;;;1.50;99.90;;;;;;4972309;28;20125;-75
2022/11/20 11:20:04;;;;;;;11.45;7.35;;;1.50;99.90;;;;;;4973768;28;20069;-74
2022/11/20 11:22:32;;;;;;;11.83;7.87;;;1.50;99.90;;;;;;4959473;28;20515;-74
2022/11/20 11:24:59;;;;;;;11.00;7.37;;;1.60;99.90;;;;;;4981263;28;20077;-74
2022/11/20 11:27:24;;;;;;;9.77;6.80;;;1.60;99.90;;;;;;4973685;28;20057;-75
2022/11/20 11:30:00;;;;;;;11.00;7.17;;;1.60;99.90;;;;;;4973891;28;20411;-75
2022/11/20 11:32:26;;;;;;;12.20;7.07;;;1.70;99.90;;;;;;4958693;28;20039;-75
2022/11/20 11:35:03;;;;;;;8.83;6.50;;;1.70;99.90;;;;;;4973188;28;20057;-75
2022/11/20 11:37:38;;;;;;;9.47;6.70;;;1.70;99.90;;;;;;4973687;28;20042;-75
2022/11/20 11:40:05;;;;;;;13.03;7.50;;;1.80;99.90;;;;;;5009434;28;20530;-75
2022/11/20 11:42:31;;;;;;;9.60;6.77;;;1.90;99.90;;;;;;5008881;28;20548;-75
2022/11/20 11:45:05;;;;;;;10.60;7.03;;;1.90;99.90;;;;;;4982158;28;20154;-75
2022/11/20 11:47:43;;;;;;;;;;;2.00;99.90;;;;;;4981158;28;20049;-75
2022/11/20 11:50:16;;;;;;;11.43;6.50;;;2.00;99.90;;;;;;5010350;28;20016;-75
2022/11/20 11:52:59;;;;;;;9.75;6.45;;;2.10;99.90;;;;;;4995353;28;20043;-75
2022/11/20 11:55:43;;;;;;;10.02;5.95;;;2.20;99.90;;;;;;5001681;28;20035;-75
2022/11/20 11:58:30;;;;;;;10.52;6.53;;;2.20;99.90;;;;;;4976672;28;20038;-75
2022/11/20 12:01:34;;;;;;;9.13;5.90;;;2.20;99.90;;;;;;4956831;28;20093;-75
2022/11/20 12:04:19;;;;;;;9.80;5.40;;;2.30;99.90;;;;;;4958762;28;20132;-75
2022/11/20 12:06:52;;;;;;;7.57;5.37;;;2.40;99.90;;;;;;4976111;28;20061;-75
2022/11/20 12:09:23;;;;;;;7.10;5.20;;;2.60;99.90;;;;;;4974310;28;20371;-75
2022/11/20 12:12:04;;;;;;;8.93;5.20;;;2.70;99.90;;;;;;4985814;28;20397;-75
2022/11/20 12:14:34;;;;;;;8.30;5.10;;;2.90;99.90;;;;;;4960220;28;20038;-75
2022/11/20 12:17:01;;;;;;;8.10;5.28;;;3.00;99.90;;;;;;4949378;28;20370;-76
2022/11/20 12:19:33;;;;;;;10.88;5.78;;;3.10;99.90;;;;;;4964984;28;20039;-75
2022/11/20 12:22:05;;;;;;;7.45;4.88;;;3.20;99.90;;;;;;4962643;28;20043;-75
2022/11/20 12:24:56;;;;;;;7.15;4.30;;;3.20;99.90;;;;;;4962895;28;20046;-75
2022/11/20 12:27:59;;;;;;;6.90;4.78;;;3.50;99.90;;;;;;4999184;28;20065;-75
2022/11/20 12:30:25;;;;;;;5.93;4.45;;;3.70;99.90;;;;;;4970343;28;20452;-75
2022/11/20 12:33:19;;;;;;;6.45;4.38;;;4.00;99.90;;;;;;4972962;28;20042;-75
2022/11/20 12:36:12;;;;;;;6.85;4.45;;;4.20;99.90;;;;;;4977604;28;20080;-77
2022/11/20 12:38:49;;;;;;;7.90;4.95;;;4.20;99.90;;;;;;4977504;28;20404;-74
2022/11/20 12:47:23;;;;;;;7.80;5.22;;;3.90;99.90;;;;;;4975821;28;20050;-73
2022/11/20 12:50:02;;;;;;;8.05;5.43;;;3.70;99.90;;;;;;4974281;28;20046;-74
2022/11/20 12:52:53;;;;;;;7.05;4.97;;;3.60;99.90;;;;;;4976143;28;20053;-75
2022/11/20 12:55:26;;;;;;;7.35;5.10;;;3.60;99.90;;;;;;5006908;28;20030;-75
2022/11/20 12:58:15;;;;;;;6.85;4.55;;;3.50;99.90;;;;;;4993147;28;20029;-75
2022/11/20 13:01:00;;;;;;;8.52;5.40;;;3.60;99.90;;;;;;4973106;28;20089;-75
2022/11/20 13:03:39;;;;;;;7.57;4.93;;;3.60;99.90;;;;;;4975259;28;20034;-75